createdAt,value
2022-12-23T00:00:11.263Z,7.10
2022-12-23T00:02:56.821Z,5.80
2022-12-23T00:05:35.784Z,5.50
2022-12-23T00:08:10.159Z,5.80
2022-12-23T00:10:43.066Z,6.50
2022-12-23T00:13:33.032Z,6.00
2022-12-23T00:16:07.676Z,5.80
2022-12-23T00:18:40.591Z,6.00
2022-12-23T00:21:15.282Z,6.00
2022-12-23T00:23:49.177Z,6.00
2022-12-23T00:26:23.977Z,5.90
2022-12-23T00:28:58.919Z,5.70
2022-12-23T00:31:31.432Z,6.70
2022-12-23T00:34:03.689Z,6.10
2022-12-23T00:36:37.654Z,5.80
2022-12-23T00:39:35.573Z,7.60
2022-12-23T00:42:25.455Z,5.80
2022-12-23T00:45:15.987Z,6.80
2022-12-23T00:48:06.649Z,6.00
2022-12-23T00:50:41.013Z,6.30
2022-12-23T00:53:13.043Z,6.00
2022-12-23T00:55:46.195Z,5.70
2022-12-23T00:58:18.919Z,6.20
2022-12-23T01:01:08.826Z,5.30
2022-12-23T01:03:58.794Z,5.80
2022-12-23T01:06:30.853Z,4.30
2022-12-23T01:09:02.926Z,6.70
2022-12-23T01:11:34.986Z,6.10
2022-12-23T01:14:09.511Z,6.00
2022-12-23T01:16:42.090Z,6.20
2022-12-23T01:19:14.257Z,5.30
2022-12-23T01:21:46.324Z,6.40
2022-12-23T01:24:18.488Z,5.70
2022-12-23T01:26:50.563Z,5.80
2022-12-23T01:29:22.630Z,5.80
2022-12-23T01:31:54.755Z,6.20
2022-12-23T01:34:32.577Z,6.30
2022-12-23T01:37:08.559Z,5.50
2022-12-23T01:39:40.828Z,5.60
2022-12-23T01:42:33.165Z,5.60
2022-12-23T01:45:07.588Z,5.80
2022-12-23T01:47:43.647Z,5.50
2022-12-23T01:50:20.835Z,5.00
2022-12-23T01:53:03.098Z,5.60
2022-12-23T01:55:43.522Z,5.80
2022-12-23T01:58:20.791Z,5.30
2022-12-23T02:01:11.151Z,5.40
2022-12-23T02:03:44.067Z,5.80
2022-12-23T02:06:40.004Z,5.90
2022-12-23T02:09:20.173Z,4.90
2022-12-23T02:12:16.338Z,5.50
2022-12-23T02:15:20.743Z,6.00
2022-12-23T02:18:04.698Z,5.30
2022-12-23T02:20:58.018Z,5.60
2022-12-23T02:24:06.539Z,5.30
2022-12-23T02:27:05.959Z,4.80
2022-12-23T02:30:02.076Z,6.20
2022-12-23T02:32:44.691Z,5.20
2022-12-23T02:35:25.496Z,5.60
2022-12-23T02:38:03.884Z,4.80
2022-12-23T02:40:42.087Z,5.00
2022-12-23T02:43:18.768Z,5.30
2022-12-23T02:45:56.084Z,5.00
2022-12-23T02:48:36.633Z,6.30
2022-12-23T02:51:12.026Z,5.70
2022-12-23T02:53:49.145Z,6.40
2022-12-23T02:56:24.729Z,5.50
2022-12-23T03:01:33.072Z,5.10
2022-12-23T03:04:06.933Z,5.20
2022-12-23T03:06:41.398Z,4.90
2022-12-23T03:09:22.890Z,5.10
2022-12-23T03:12:02.089Z,5.60
2022-12-23T03:15:02.511Z,5.30
2022-12-23T03:17:44.212Z,6.30
2022-12-23T03:22:56.934Z,4.50
2022-12-23T03:25:32.781Z,5.10
2022-12-23T03:28:12.546Z,4.90
2022-12-23T03:30:49.017Z,4.50
2022-12-23T03:33:25.546Z,5.20
2022-12-23T03:36:05.017Z,5.40
2022-12-23T03:38:40.695Z,5.70
2022-12-23T03:41:18.057Z,6.00
2022-12-23T03:43:55.961Z,4.80
2022-12-23T03:46:32.800Z,5.10
2022-12-23T03:49:08.798Z,5.20
2022-12-23T03:51:46.599Z,5.60
2022-12-23T03:54:24.139Z,6.30
2022-12-23T03:57:02.815Z,5.20
2022-12-23T03:59:39.184Z,5.90
2022-12-23T04:02:16.944Z,5.10
2022-12-23T04:05:03.715Z,4.60
2022-12-23T04:07:39.652Z,4.50
2022-12-23T04:10:14.247Z,4.50
2022-12-23T04:12:46.991Z,4.90
2022-12-23T04:15:24.444Z,5.40
2022-12-23T04:17:58.261Z,4.70
2022-12-23T04:20:30.190Z,5.10
2022-12-23T04:23:02.286Z,5.30
2022-12-23T04:25:34.435Z,5.80
2022-12-23T04:28:07.037Z,4.70
2022-12-23T04:30:38.998Z,5.00
2022-12-23T04:33:13.570Z,4.80
2022-12-23T04:35:45.594Z,4.80
2022-12-23T04:38:17.562Z,5.20
2022-12-23T04:40:49.852Z,5.10
2022-12-23T04:43:21.891Z,4.60
2022-12-23T04:45:54.560Z,4.60
2022-12-23T04:48:26.639Z,4.70
2022-12-23T04:50:58.707Z,3.90
2022-12-23T04:53:30.716Z,5.10
2022-12-23T04:56:02.722Z,4.20
2022-12-23T04:58:34.817Z,4.70
2022-12-23T05:01:08.704Z,4.50
2022-12-23T05:03:41.746Z,4.50
2022-12-23T05:06:13.969Z,4.80
2022-12-23T05:08:45.943Z,4.70
2022-12-23T05:11:17.976Z,4.90
2022-12-23T05:13:49.951Z,4.60
2022-12-23T05:16:22.498Z,5.30
2022-12-23T05:18:54.548Z,5.30
2022-12-23T05:21:26.907Z,4.60
2022-12-23T05:23:59.354Z,5.00
2022-12-23T05:26:31.347Z,5.30
2022-12-23T05:29:03.313Z,4.20
2022-12-23T05:31:35.584Z,4.10
2022-12-23T05:34:07.755Z,4.30
2022-12-23T05:36:39.890Z,4.20
2022-12-23T05:39:11.953Z,5.50
2022-12-23T05:41:44.020Z,4.20
2022-12-23T05:44:16.089Z,4.70
2022-12-23T05:46:48.101Z,3.90
2022-12-23T05:49:20.638Z,5.20
2022-12-23T05:51:52.621Z,4.30
2022-12-23T05:54:24.667Z,4.70
2022-12-23T05:56:56.701Z,4.50
2022-12-23T05:59:31.635Z,4.50
2022-12-23T06:02:04.221Z,4.30
2022-12-23T06:04:36.510Z,5.20
2022-12-23T06:07:08.577Z,3.70
2022-12-23T06:09:40.548Z,4.40
2022-12-23T06:12:12.476Z,4.60
2022-12-23T06:14:44.571Z,3.90
2022-12-23T06:17:16.640Z,4.20
2022-12-23T06:19:48.707Z,4.40
2022-12-23T06:22:21.890Z,4.50
2022-12-23T06:24:54.269Z,4.40
2022-12-23T06:27:26.438Z,4.10
2022-12-23T06:29:58.521Z,4.40
2022-12-23T06:32:34.511Z,3.80
2022-12-23T06:35:11.828Z,4.10
2022-12-23T06:37:44.786Z,5.50
2022-12-23T06:40:17.313Z,3.60
2022-12-23T06:42:49.287Z,3.90
2022-12-23T06:45:21.359Z,4.30
2022-12-23T06:47:53.364Z,3.80
2022-12-23T06:50:25.480Z,4.00
2022-12-23T06:52:57.547Z,3.60
2022-12-23T06:55:29.825Z,3.90
2022-12-23T06:58:02.496Z,4.00
2022-12-23T07:00:34.588Z,4.50
2022-12-23T07:03:15.186Z,4.30
2022-12-23T07:05:51.558Z,3.70
2022-12-23T07:08:24.182Z,5.40
2022-12-23T14:31:32.069Z,10.30
2022-12-23T14:34:28.956Z,11.70
2022-12-23T14:37:32.882Z,10.20
2022-12-23T14:40:35.643Z,10.20
2022-12-23T14:43:33.263Z,8.30
2022-12-23T14:46:07.763Z,9.20
2022-12-23T14:49:39.672Z,10.70
2022-12-23T14:52:49.695Z,10.70
2022-12-23T14:55:47.232Z,9.50
2022-12-23T14:58:54.872Z,11.60
2022-12-23T15:01:38.718Z,10.00
2022-12-23T15:04:21.052Z,8.40
2022-12-23T15:06:56.365Z,8.70
2022-12-23T15:09:32.789Z,9.80
2022-12-23T15:12:21.124Z,11.10
2022-12-23T15:14:57.475Z,10.70
2022-12-23T15:17:32.065Z,9.00
2022-12-23T15:20:15.991Z,10.80
2022-12-23T15:22:49.907Z,11.10
2022-12-23T15:25:27.517Z,11.70
2022-12-23T15:28:02.797Z,12.40
2022-12-23T15:30:47.518Z,10.50
2022-12-23T15:36:22.998Z,11.30
2022-12-23T15:38:55.727Z,12.30
2022-12-23T15:41:28.697Z,15.30
2022-12-23T15:44:02.772Z,13.30
2022-12-23T15:46:42.051Z,12.60
2022-12-23T15:49:21.489Z,13.60
2022-12-23T15:52:07.771Z,13.20
2022-12-23T15:54:47.197Z,12.20
2022-12-23T15:57:24.363Z,14.60
2022-12-23T15:59:57.809Z,13.00
2022-12-23T16:03:00.536Z,12.50
2022-12-23T16:05:31.200Z,12.40
2022-12-23T16:08:29.044Z,13.30
2022-12-23T16:11:14.911Z,14.40
2022-12-23T16:14:06.635Z,14.70
2022-12-23T16:16:57.120Z,16.00
2022-12-23T16:19:58.073Z,20.40
2022-12-23T16:22:52.042Z,36.90
2022-12-23T16:25:48.439Z,23.90
2022-12-23T16:28:43.509Z,16.30
2022-12-23T16:31:23.798Z,25.40
2022-12-23T16:34:01.192Z,23.20
2022-12-23T16:36:39.086Z,23.20
2022-12-23T16:39:25.546Z,25.70
2022-12-23T16:42:07.564Z,99.60
2022-12-23T16:44:41.457Z,30.70
2022-12-23T16:47:20.095Z,26.10
2022-12-23T16:49:53.158Z,25.00
2022-12-23T16:52:25.861Z,33.60
2022-12-23T16:54:58.231Z,23.30
2022-12-23T16:57:30.780Z,18.50
2022-12-23T17:00:03.459Z,17.30
2022-12-23T17:02:36.277Z,19.90
2022-12-23T17:05:13.929Z,25.70
2022-12-23T17:07:46.857Z,39.40
2022-12-23T17:10:19.657Z,24.90
2022-12-23T17:12:52.889Z,22.00
2022-12-23T17:15:27.019Z,34.60
2022-12-23T17:17:59.747Z,17.60
2022-12-23T17:20:33.725Z,18.70
2022-12-23T17:23:07.625Z,21.60
2022-12-23T17:25:40.133Z,16.40
2022-12-23T17:28:13.604Z,17.10
2022-12-23T17:30:46.033Z,15.20
2022-12-23T17:33:20.674Z,15.80
2022-12-23T17:35:53.724Z,16.90
2022-12-23T17:38:27.629Z,16.00
2022-12-23T17:41:00.994Z,16.40
2022-12-23T17:43:33.823Z,24.20
2022-12-23T17:46:06.399Z,46.90
2022-12-23T17:48:38.872Z,34.40
2022-12-23T17:51:15.633Z,40.00
2022-12-23T17:53:55.128Z,30.20
2022-12-23T17:56:30.380Z,34.80
2022-12-23T17:59:02.870Z,31.30
2022-12-23T18:01:35.397Z,45.60
2022-12-23T18:04:07.984Z,60.40
2022-12-23T18:06:40.918Z,57.80
2022-12-23T18:09:13.223Z,31.90
2022-12-23T18:11:50.899Z,23.60
2022-12-23T18:14:28.176Z,24.80
2022-12-23T18:17:01.479Z,18.20
2022-12-23T18:19:34.679Z,30.50
2022-12-23T18:22:07.139Z,18.70
2022-12-23T18:24:39.489Z,44.20
2022-12-23T18:27:16.268Z,30.10
2022-12-23T18:29:49.482Z,20.30
2022-12-23T18:32:27.612Z,36.60
2022-12-23T18:34:59.949Z,33.90
2022-12-23T18:37:32.557Z,42.60
2022-12-23T18:40:07.158Z,24.30
2022-12-23T18:42:39.646Z,60.90
2022-12-23T18:45:26.042Z,59.20
2022-12-23T18:47:58.965Z,31.30
2022-12-23T18:50:32.514Z,22.60
2022-12-23T18:53:05.711Z,23.00
2022-12-23T18:55:39.334Z,21.40
2022-12-23T18:58:14.482Z,29.80
2022-12-23T19:00:47.925Z,34.80
2022-12-23T19:03:25.345Z,34.80
2022-12-23T19:06:06.710Z,39.90
2022-12-23T19:08:40.643Z,25.20
2022-12-23T19:11:18.543Z,24.00
2022-12-23T19:13:50.920Z,29.60
2022-12-23T19:16:23.829Z,41.50
2022-12-23T19:18:56.269Z,48.50
2022-12-23T19:21:28.884Z,33.60
2022-12-23T19:24:01.113Z,26.20
2022-12-23T19:26:33.411Z,70.80
2022-12-23T19:29:05.768Z,58.70
2022-12-23T19:31:38.665Z,41.70
2022-12-23T19:34:15.328Z,33.30
2022-12-23T19:36:48.673Z,38.00
2022-12-23T19:39:22.122Z,29.70
2022-12-23T19:41:55.360Z,26.10
2022-12-23T19:44:27.696Z,35.00
2022-12-23T19:47:00.686Z,56.00
2022-12-23T19:49:34.620Z,30.70
2022-12-23T19:52:07.410Z,32.80
2022-12-23T19:54:40.333Z,25.90
2022-12-23T19:57:12.838Z,24.60
2022-12-23T19:59:45.434Z,26.10
2022-12-23T20:02:20.354Z,26.80
2022-12-23T20:04:53.221Z,26.20
2022-12-23T20:07:25.781Z,15.90
2022-12-23T20:09:58.055Z,15.00
2022-12-23T20:12:30.251Z,31.10
2022-12-23T20:15:02.732Z,49.90
2022-12-23T20:17:35.093Z,47.30
2022-12-23T20:20:09.550Z,24.40
2022-12-23T20:22:41.815Z,24.20
2022-12-23T20:25:14.363Z,34.60
2022-12-23T20:27:46.944Z,47.10
2022-12-23T20:30:19.522Z,32.40
2022-12-23T20:32:52.117Z,30.50
2022-12-23T20:35:24.633Z,21.40
2022-12-23T20:37:57.315Z,23.00
2022-12-23T20:40:29.828Z,23.60
2022-12-23T20:43:02.277Z,20.70
2022-12-23T20:45:35.159Z,22.00
2022-12-23T20:48:08.344Z,27.50
2022-12-23T20:50:42.745Z,18.50
2022-12-23T20:53:15.279Z,27.90
2022-12-23T20:55:47.662Z,27.80
2022-12-23T20:58:37.747Z,36.20
2022-12-23T21:01:14.521Z,20.60
2022-12-23T21:03:46.920Z,18.50
2022-12-23T21:06:19.916Z,17.40
2022-12-23T21:08:55.901Z,15.40
2022-12-23T21:14:06.324Z,14.00
2022-12-23T21:16:40.792Z,14.60
2022-12-23T21:19:18.662Z,12.30
2022-12-23T21:21:52.200Z,12.00
2022-12-23T21:24:24.489Z,14.30
2022-12-23T21:26:57.465Z,14.70
2022-12-23T21:29:30.445Z,14.00
2022-12-23T21:32:02.909Z,12.70
2022-12-23T21:34:35.185Z,14.50
2022-12-23T21:37:07.307Z,13.40
2022-12-23T21:39:39.826Z,13.90
2022-12-23T21:42:12.212Z,13.00
2022-12-23T21:44:44.974Z,11.90
2022-12-23T21:47:17.489Z,15.40
2022-12-23T21:49:50.337Z,15.00
2022-12-23T21:52:23.326Z,15.10
2022-12-23T21:54:55.692Z,13.80
2022-12-23T21:57:28.246Z,14.60
2022-12-23T22:00:00.384Z,15.90
2022-12-23T22:02:33.135Z,14.00
2022-12-23T22:05:06.006Z,16.10
2022-12-23T22:07:39.088Z,15.10
2022-12-23T22:10:13.718Z,16.50
2022-12-23T22:12:45.783Z,16.90
2022-12-23T22:15:19.628Z,17.50
2022-12-23T22:17:52.714Z,15.30
2022-12-23T22:20:25.113Z,15.70
2022-12-23T22:22:57.420Z,15.40
2022-12-23T22:25:29.510Z,14.40
2022-12-23T22:28:03.008Z,18.50
2022-12-23T22:30:35.194Z,14.90
2022-12-23T22:33:08.655Z,13.70
2022-12-23T22:35:40.834Z,13.10
2022-12-23T22:38:13.018Z,12.20
2022-12-23T22:40:49.147Z,13.50
2022-12-23T22:43:22.224Z,11.70
2022-12-23T22:46:01.193Z,14.00
2022-12-23T22:48:33.676Z,12.60
2022-12-23T22:51:09.615Z,11.90
2022-12-23T22:53:42.529Z,11.20
2022-12-23T22:56:16.767Z,10.80
2022-12-23T22:58:49.374Z,10.10
2022-12-23T23:01:25.011Z,9.50
2022-12-23T23:03:59.557Z,10.20
2022-12-23T23:06:34.116Z,12.70
2022-12-23T23:09:07.897Z,10.90
2022-12-23T23:11:40.649Z,10.40
2022-12-23T23:14:13.600Z,12.00
2022-12-23T23:16:46.283Z,12.00
2022-12-23T23:19:20.807Z,12.30
2022-12-23T23:21:53.569Z,9.70
2022-12-23T23:24:31.064Z,13.30
2022-12-23T23:27:03.837Z,12.80
2022-12-23T23:29:36.135Z,15.20
2022-12-23T23:32:09.601Z,17.90
2022-12-23T23:34:42.297Z,18.40
2022-12-23T23:37:15.861Z,16.00
2022-12-23T23:39:48.655Z,13.90
2022-12-23T23:42:21.040Z,14.90
2022-12-23T23:44:53.384Z,19.70
2022-12-23T23:47:25.890Z,19.60
2022-12-23T23:49:58.120Z,19.60
2022-12-23T23:52:30.366Z,17.90
2022-12-23T23:55:02.597Z,17.60
2022-12-23T23:57:35.398Z,18.20
